createdAt,value
2022-07-30T00:00:07.698Z,17.5
2022-07-30T00:05:08.114Z,17.5
2022-07-30T00:10:07.866Z,17.3
2022-07-30T00:15:08.592Z,17.3
2022-07-30T00:20:08.286Z,17.2
2022-07-30T00:25:08.017Z,17.2
2022-07-30T00:30:08.365Z,17.0
2022-07-30T00:35:08.067Z,17.0
2022-07-30T00:40:07.784Z,17.0
2022-07-30T00:45:08.496Z,17.0
2022-07-30T00:50:08.230Z,16.6
2022-07-30T00:55:07.985Z,16.6
2022-07-30T01:00:07.696Z,16.2
2022-07-30T01:05:08.389Z,16.2
2022-07-30T01:10:08.098Z,15.8
2022-07-30T01:15:07.798Z,15.8
2022-07-30T01:20:08.525Z,15.8
2022-07-30T01:25:13.901Z,15.8
2022-07-30T01:30:08.611Z,15.8
2022-07-30T01:35:10.904Z,15.8
2022-07-30T01:40:08.637Z,15.8
2022-07-30T01:45:08.367Z,15.8
2022-07-30T01:50:08.064Z,15.5
2022-07-30T01:55:14.555Z,15.5
2022-07-30T02:00:08.035Z,15.5
2022-07-30T02:05:07.750Z,15.5
2022-07-30T02:10:08.528Z,15.5
2022-07-30T02:15:14.624Z,15.5
2022-07-30T02:20:10.017Z,15.1
2022-07-30T02:25:07.908Z,15.1
2022-07-30T02:30:08.622Z,15.1
2022-07-30T02:35:08.330Z,15.1
2022-07-30T02:40:08.086Z,15.1
2022-07-30T02:45:07.788Z,15.1
2022-07-30T02:50:08.523Z,15.0
2022-07-30T02:55:08.231Z,15.0
2022-07-30T03:00:07.970Z,14.8
2022-07-30T03:05:07.667Z,14.8
2022-07-30T03:10:08.383Z,14.6
2022-07-30T03:15:08.110Z,14.6
2022-07-30T03:20:07.828Z,14.3
2022-07-30T03:25:08.519Z,14.3
2022-07-30T03:30:08.237Z,14.3
2022-07-30T03:35:08.825Z,14.6
2022-07-30T03:40:07.977Z,15.1
2022-07-30T03:45:07.697Z,15.1
2022-07-30T03:50:08.426Z,15.0
2022-07-30T03:55:08.128Z,14.8
2022-07-30T04:00:07.861Z,14.8
2022-07-30T04:05:02.658Z,15.1
2022-07-30T04:10:02.496Z,15.1
2022-07-30T04:15:02.332Z,15.5
2022-07-30T04:20:02.162Z,15.5
2022-07-30T04:25:01.987Z,15.5
2022-07-30T04:30:02.112Z,15.5
2022-07-30T04:35:01.874Z,15.5
2022-07-30T04:40:02.612Z,15.6
2022-07-30T04:45:02.562Z,15.6
2022-07-30T04:50:02.470Z,15.8
2022-07-30T04:55:02.217Z,15.8
2022-07-30T05:00:02.078Z,15.8
2022-07-30T05:05:01.910Z,15.8
2022-07-30T05:10:02.639Z,15.8
2022-07-30T05:15:02.462Z,16.2
2022-07-30T05:20:02.304Z,16.2
2022-07-30T05:25:02.117Z,16.2
2022-07-30T05:30:01.951Z,16.2
2022-07-30T05:35:01.772Z,16.3
2022-07-30T05:40:03.739Z,16.3
2022-07-30T05:45:02.885Z,16.3
2022-07-30T05:50:04.999Z,16.3
2022-07-30T05:55:02.218Z,16.3
2022-07-30T06:00:02.059Z,16.3
2022-07-30T06:05:02.002Z,16.2
2022-07-30T06:10:01.929Z,16.2
2022-07-30T06:15:02.786Z,17.0
2022-07-30T06:20:02.745Z,17.0
2022-07-30T06:25:02.570Z,17.2
2022-07-30T06:30:02.164Z,17.2
2022-07-30T06:35:04.769Z,17.3
2022-07-30T06:40:02.061Z,17.7
2022-07-30T06:45:01.869Z,17.7
2022-07-30T06:50:02.739Z,17.8
2022-07-30T06:55:02.559Z,17.8
2022-07-30T07:00:02.438Z,17.8
2022-07-30T07:05:02.326Z,17.8
2022-07-30T07:10:02.067Z,18.8
2022-07-30T07:15:01.789Z,18.8
2022-07-30T07:20:02.967Z,19.3
2022-07-30T07:25:01.760Z,19.3
2022-07-30T07:30:05.605Z,19.2
2022-07-30T07:35:01.854Z,19.2
2022-07-30T07:40:02.609Z,18.6
2022-07-30T07:45:02.339Z,18.6
2022-07-30T07:50:02.168Z,19.3
2022-07-30T07:55:02.773Z,19.3
2022-07-30T08:00:01.714Z,19.7
2022-07-30T08:05:02.479Z,19.7
2022-07-30T08:10:02.413Z,20.2
2022-07-30T08:15:02.237Z,20.2
2022-07-30T08:20:01.998Z,20.3
2022-07-30T08:25:01.787Z,20.3
2022-07-30T08:30:02.689Z,21.2
2022-07-30T08:35:02.462Z,21.2
2022-07-30T08:40:02.628Z,22.6
2022-07-30T08:45:02.491Z,22.6
2022-07-30T08:50:04.632Z,23.2
2022-07-30T08:55:02.409Z,23.2
2022-07-30T09:00:02.332Z,23.2
2022-07-30T09:05:02.186Z,23.2
2022-07-30T09:10:02.117Z,24.2
2022-07-30T09:15:01.948Z,24.2
2022-07-30T09:20:01.762Z,26.0
2022-07-30T09:25:02.647Z,26.0
2022-07-30T09:30:02.484Z,25.0
2022-07-30T09:35:02.369Z,25.0
2022-07-30T09:40:02.144Z,25.3
2022-07-30T09:45:01.960Z,25.3
2022-07-30T09:50:09.866Z,24.7
2022-07-30T09:55:03.531Z,24.7
2022-07-30T10:00:02.367Z,26.5
2022-07-30T10:05:09.121Z,26.5
2022-07-30T10:10:01.929Z,26.2
2022-07-30T10:15:02.015Z,26.2
2022-07-30T10:20:03.151Z,25.2
2022-07-30T10:25:02.142Z,25.2
2022-07-30T10:30:03.609Z,25.8
2022-07-30T10:35:02.030Z,25.8
2022-07-30T10:40:02.967Z,25.0
2022-07-30T10:45:17.216Z,25.0
2022-07-30T10:50:02.767Z,25.2
2022-07-30T10:55:02.700Z,25.2
2022-07-30T11:00:04.244Z,25.7
2022-07-30T11:05:02.263Z,25.7
2022-07-30T11:10:05.350Z,25.6
2022-07-30T11:15:06.489Z,26.7
2022-07-30T11:20:02.321Z,26.7
2022-07-30T11:25:05.459Z,26.6
2022-07-30T11:30:02.738Z,26.6
2022-07-30T11:35:02.567Z,26.7
2022-07-30T11:40:02.635Z,26.7
2022-07-30T11:45:12.408Z,27.2
2022-07-30T11:50:02.194Z,27.2
2022-07-30T11:55:02.207Z,28.3
2022-07-30T12:00:02.547Z,28.3
2022-07-30T12:05:03.518Z,28.3
2022-07-30T12:10:12.410Z,28.3
2022-07-30T12:15:02.241Z,27.5
2022-07-30T12:20:02.172Z,27.5
2022-07-30T12:25:02.122Z,27.8
2022-07-30T12:30:01.937Z,27.8
2022-07-30T12:35:02.588Z,28.0
2022-07-30T12:40:14.947Z,28.7
2022-07-30T12:45:02.060Z,28.0
2022-07-30T12:50:01.996Z,28.0
2022-07-30T12:55:02.054Z,26.2
2022-07-30T13:00:01.846Z,26.2
2022-07-30T13:05:11.290Z,27.7
2022-07-30T13:10:02.670Z,27.7
2022-07-30T13:15:02.522Z,29.5
2022-07-30T13:20:02.317Z,29.5
2022-07-30T13:25:02.079Z,31.0
2022-07-30T13:30:02.067Z,31.0
2022-07-30T13:35:02.281Z,31.0
2022-07-30T13:40:02.253Z,31.0
2022-07-30T13:45:02.097Z,30.3
2022-07-30T13:50:01.942Z,30.3
2022-07-30T13:55:02.757Z,30.2
2022-07-30T14:00:02.598Z,30.2
2022-07-30T14:05:02.418Z,29.0
2022-07-30T14:10:02.459Z,31.1
2022-07-30T14:15:02.315Z,31.1
2022-07-30T14:20:02.131Z,31.2
2022-07-30T14:25:01.955Z,31.2
2022-07-30T14:30:01.873Z,30.2
2022-07-30T14:35:02.966Z,30.2
2022-07-30T14:40:01.839Z,28.7
2022-07-30T14:45:02.771Z,28.7
2022-07-30T14:50:02.654Z,29.2
2022-07-30T14:55:03.942Z,29.2
2022-07-30T15:00:02.629Z,27.8
2022-07-30T15:05:02.452Z,31.1
2022-07-30T15:10:02.351Z,30.7
2022-07-30T15:15:02.228Z,30.7
2022-07-30T15:20:02.495Z,29.5
2022-07-30T15:25:02.289Z,29.5
2022-07-30T15:30:02.055Z,27.8
2022-07-30T15:35:01.861Z,27.8
2022-07-30T15:40:02.644Z,27.2
2022-07-30T15:45:16.647Z,27.1
2022-07-30T15:50:02.797Z,27.1
2022-07-30T15:55:02.495Z,26.7
2022-07-30T16:00:02.390Z,26.7
2022-07-30T16:05:02.207Z,26.6
2022-07-30T16:10:02.105Z,26.6
2022-07-30T16:15:01.849Z,26.2
2022-07-30T16:20:02.607Z,26.2
2022-07-30T16:25:02.431Z,25.8
2022-07-30T16:30:02.262Z,25.8
2022-07-30T16:35:01.996Z,25.8
2022-07-30T16:40:01.877Z,25.7
2022-07-30T16:45:02.687Z,25.7
2022-07-30T16:50:02.520Z,25.7
2022-07-30T16:55:02.345Z,25.8
2022-07-30T17:00:02.207Z,26.2
2022-07-30T17:05:01.999Z,27.5
2022-07-30T17:10:01.894Z,29.0
2022-07-30T17:15:02.817Z,29.0
2022-07-30T17:20:02.723Z,28.2
2022-07-30T17:25:02.727Z,25.8
2022-07-30T17:30:02.707Z,25.8
2022-07-30T17:35:02.645Z,25.3
2022-07-30T17:40:27.823Z,25.3
2022-07-30T17:45:01.911Z,25.2
2022-07-30T17:50:02.949Z,25.2
2022-07-30T17:55:01.768Z,25.2
2022-07-30T18:00:02.635Z,25.2
2022-07-30T18:05:02.429Z,24.7
2022-07-30T18:10:02.259Z,24.7
2022-07-30T18:15:02.003Z,24.5
2022-07-30T18:20:01.794Z,24.5
2022-07-30T18:25:02.600Z,24.2
2022-07-30T18:30:02.434Z,24.2
2022-07-30T18:35:02.249Z,24.0
2022-07-30T18:40:01.997Z,24.0
2022-07-30T18:45:02.248Z,24.0
2022-07-30T18:50:02.155Z,23.7
2022-07-30T18:55:02.025Z,23.7
2022-07-30T19:00:01.802Z,23.7
2022-07-30T19:05:02.601Z,23.6
2022-07-30T19:10:02.417Z,23.2
2022-07-30T19:15:02.272Z,23.2
2022-07-30T19:20:02.552Z,23.1
2022-07-30T19:25:02.290Z,23.1
2022-07-30T19:30:02.053Z,23.0
2022-07-30T19:35:02.537Z,23.0
2022-07-30T19:40:06.718Z,22.7
2022-07-30T19:45:04.252Z,22.6
2022-07-30T19:50:01.881Z,22.5
2022-07-30T19:55:02.947Z,22.5
2022-07-30T20:00:04.587Z,22.3
2022-07-30T20:05:02.702Z,22.1
2022-07-30T20:10:01.928Z,22.1
2022-07-30T20:15:02.891Z,22.1
2022-07-30T20:20:02.597Z,22.1
2022-07-30T20:25:02.131Z,22.2
2022-07-30T20:30:02.276Z,22.2
2022-07-30T20:35:02.089Z,22.0
2022-07-30T20:40:01.935Z,21.8
2022-07-30T20:45:02.843Z,21.8
2022-07-30T20:50:01.914Z,21.5
2022-07-30T20:55:02.848Z,21.5
2022-07-30T21:00:02.680Z,21.3
2022-07-30T21:05:02.441Z,21.3
2022-07-30T21:10:01.829Z,21.2
2022-07-30T21:15:01.896Z,21.2
2022-07-30T21:20:02.759Z,21.2
2022-07-30T21:25:01.743Z,21.2
2022-07-30T21:30:01.999Z,21.2
2022-07-30T21:35:14.641Z,21.2
2022-07-30T21:40:08.133Z,21.2
2022-07-30T21:45:08.618Z,21.2
2022-07-30T21:50:08.309Z,21.2
2022-07-30T21:55:07.779Z,21.2
2022-07-30T22:00:08.523Z,21.0
2022-07-30T22:05:08.428Z,21.0
2022-07-30T22:10:08.433Z,21.0
2022-07-30T22:15:08.458Z,21.0
2022-07-30T22:25:09.618Z,21.0
2022-07-30T22:30:08.618Z,20.7
2022-07-30T22:35:08.345Z,20.7
2022-07-30T22:40:07.651Z,20.7
2022-07-30T22:45:08.403Z,20.7
2022-07-30T22:50:08.314Z,20.7
2022-07-30T22:55:10.214Z,20.7
2022-07-30T23:00:58.592Z,20.7
2022-07-30T23:05:08.632Z,20.7
2022-07-30T23:10:17.350Z,20.6
2022-07-30T23:12:31.286Z,21.0
2022-07-30T23:15:09.446Z,20.6
2022-07-30T23:20:08.164Z,20.3
2022-07-30T23:25:07.911Z,20.3
2022-07-30T23:30:08.626Z,20.3
2022-07-30T23:35:08.351Z,20.3
2022-07-30T23:40:08.091Z,20.2
2022-07-30T23:45:07.822Z,20.2
2022-07-30T23:50:08.581Z,20.2
2022-07-30T23:55:08.276Z,20.2
